Time;durP1;ratioP1;P1;durP2;ratioP2;P2;SDS_P1;SDS_P2;PMS_P1;PMS_P2;Temp;Humidity;BMP_temperature;BMP_pressure;BME280_temperature;BME280_humidity;BME280_pressure;Samples;Min_cycle;Max_cycle;Signal;HPM_P1;HPM_P2
2024/01/03 00:01:16;;;;;;;12.65;6.60;;;;;;;;;;2066036;28;20034;-85
2024/01/03 00:02:39;;;;;;;12.70;6.43;;;;;;;;;;2069701;28;20030;-83
2024/01/03 00:04:00;;;;;;;12.18;7.05;;;;;;;;;;2066034;28;20034;-82
2024/01/03 00:05:25;;;;;;;24.83;6.97;;;;;;;;;;2070615;28;20034;-83
2024/01/03 00:06:46;;;;;;;13.70;6.38;;;;;;;;;;2068902;28;20041;-85
2024/01/03 00:08:26;;;;;;;12.23;6.47;;;;;;;;;;2067015;28;20048;-83
2024/01/03 00:09:47;;;;;;;16.02;6.45;;;;;;;;;;2058138;28;20065;-81
2024/01/03 00:11:11;;;;;;;11.93;5.65;;;;;;;;;;2060365;28;20038;-83
2024/01/03 00:12:33;;;;;;;14.10;6.60;;;;;;;;;;2070753;28;20026;-85
2024/01/03 00:13:53;;;;;;;14.73;6.93;;;;;;;;;;2072046;28;20375;-83
2024/01/03 00:15:33;;;;;;;13.48;6.45;;;;;;;;;;2062330;28;20401;-84
2024/01/03 00:16:58;;;;;;;12.43;6.57;;;;;;;;;;2064810;28;20034;-82
2024/01/03 00:18:34;;;;;;;11.75;5.50;;;;;;;;;;2063186;28;20041;-82
2024/01/03 00:19:56;;;;;;;15.00;6.43;;;;;;;;;;2057254;28;20491;-81
2024/01/03 00:21:18;;;;;;;11.35;6.15;;;;;;;;;;2063139;28;20034;-82
2024/01/03 00:22:40;;;;;;;17.42;6.30;;;;;;;;;;2061820;28;20027;-81
2024/01/03 00:24:03;;;;;;;9.38;5.72;;;;;;;;;;2071364;28;20378;-81
2024/01/03 00:25:28;;;;;;;14.30;6.75;;;;;;;;;;2068541;28;20384;-81
2024/01/03 00:26:49;;;;;;;14.38;5.60;;;;;;;;;;2065051;28;20030;-82
2024/01/03 00:28:11;;;;;;;14.27;6.43;;;;;;;;;;2071016;28;20038;-83
2024/01/03 00:30:04;;;;;;;16.50;7.90;;;;;;;;;;2056372;28;20039;-82
2024/01/03 00:31:44;;;;;;;15.45;6.00;;;;;;;;;;2033424;28;20028;-84
2024/01/03 00:33:06;;;;;;;9.57;5.63;;;;;;;;;;2066091;28;20030;-81
2024/01/03 00:34:26;;;;;;;19.27;6.68;;;;;;;;;;2056906;28;20030;-81
2024/01/03 00:35:47;;;;;;;16.92;6.85;;;;;;;;;;2063461;28;20034;-81
2024/01/03 00:37:21;;;;;;;14.98;6.35;;;;;;;;;;2064833;28;20037;-83
2024/01/03 00:38:42;;;;;;;17.13;6.82;;;;;;;;;;2058392;28;20038;-81
2024/01/03 00:40:04;;;;;;;15.65;5.88;;;;;;;;;;2056545;28;20049;-82
2024/01/03 00:41:25;;;;;;;11.63;6.28;;;;;;;;;;2060823;28;20548;-81
2024/01/03 00:42:46;;;;;;;13.02;6.97;;;;;;;;;;2055264;28;20086;-80
2024/01/03 00:44:07;;;;;;;11.65;5.90;;;;;;;;;;2068387;28;20560;-80
2024/01/03 00:45:28;;;;;;;11.77;6.43;;;;;;;;;;2065923;28;20425;-81
2024/01/03 00:46:53;;;;;;;10.25;6.03;;;;;;;;;;2063950;28;20034;-80
2024/01/03 00:48:15;;;;;;;13.52;6.13;;;;;;;;;;2066265;28;20030;-81
2024/01/03 00:49:36;;;;;;;19.17;6.80;;;;;;;;;;2063791;28;20042;-82
2024/01/03 00:50:57;;;;;;;16.83;6.40;;;;;;;;;;2067175;28;20030;-83
2024/01/03 00:52:18;;;;;;;15.98;6.97;;;;;;;;;;2064698;28;20031;-79
2024/01/03 00:53:39;;;;;;;18.98;7.22;;;;;;;;;;2065501;28;20030;-81
2024/01/03 00:55:00;;;;;;;23.52;6.80;;;;;;;;;;2064382;28;20045;-84
2024/01/03 00:56:21;;;;;;;16.60;6.93;;;;;;;;;;2066124;28;20046;-84
2024/01/03 00:57:43;;;;;;;16.38;7.38;;;;;;;;;;2056667;28;20051;-82
2024/01/03 00:59:04;;;;;;;16.98;7.15;;;;;;;;;;2058235;28;20034;-81
2024/01/03 01:00:24;;;;;;;18.50;7.00;;;;;;;;;;2053772;28;20039;-80
2024/01/03 01:01:46;;;;;;;22.27;7.38;;;;;;;;;;2061756;28;20411;-82
2024/01/03 01:03:07;;;;;;;17.15;7.00;;;;;;;;;;2063168;28;20046;-81
2024/01/03 01:04:28;;;;;;;21.30;6.55;;;;;;;;;;2064191;28;20030;-81
2024/01/03 01:05:49;;;;;;;19.73;8.35;;;;;;;;;;2065944;28;20038;-83
2024/01/03 01:07:11;;;;;;;22.30;8.40;;;;;;;;;;2073013;28;20062;-82
2024/01/03 01:08:32;;;;;;;15.93;6.60;;;;;;;;;;2067435;28;20037;-81
2024/01/03 01:09:53;;;;;;;21.67;6.90;;;;;;;;;;2063824;28;20509;-81
2024/01/03 01:11:14;;;;;;;14.95;6.55;;;;;;;;;;2068365;28;20035;-80
2024/01/03 01:12:34;;;;;;;14.95;7.57;;;;;;;;;;2076871;28;20032;-81
2024/01/03 01:13:55;;;;;;;14.98;6.25;;;;;;;;;;2070369;28;20030;-81
2024/01/03 01:15:16;;;;;;;19.13;6.90;;;;;;;;;;2060927;28;20518;-81
2024/01/03 01:16:37;;;;;;;19.77;7.22;;;;;;;;;;2066475;28;20038;-81
2024/01/03 01:17:58;;;;;;;24.58;7.68;;;;;;;;;;2064147;28;20043;-80
2024/01/03 01:19:19;;;;;;;22.58;7.82;;;;;;;;;;2065024;28;20029;-83
2024/01/03 01:20:40;;;;;;;14.10;7.53;;;;;;;;;;2064561;28;20065;-81
2024/01/03 01:22:01;;;;;;;19.63;6.45;;;;;;;;;;2070069;28;20069;-81
2024/01/03 01:23:21;;;;;;;16.08;6.57;;;;;;;;;;2058595;28;20031;-81
2024/01/03 01:24:42;;;;;;;17.65;7.97;;;;;;;;;;2059211;28;20041;-81
2024/01/03 01:26:03;;;;;;;15.98;7.45;;;;;;;;;;2069370;28;20428;-82
2024/01/03 01:27:24;;;;;;;14.98;6.65;;;;;;;;;;2067714;28;20042;-80
2024/01/03 01:28:45;;;;;;;16.08;7.07;;;;;;;;;;2065180;28;20037;-81
2024/01/03 01:30:06;;;;;;;22.35;7.40;;;;;;;;;;2064586;28;20031;-81
2024/01/03 01:31:27;;;;;;;13.88;6.53;;;;;;;;;;2064438;28;20030;-81
2024/01/03 01:32:50;;;;;;;17.83;6.28;;;;;;;;;;2065906;28;20444;-83
2024/01/03 01:34:11;;;;;;;17.88;6.80;;;;;;;;;;2070924;28;20096;-80
2024/01/03 01:35:32;;;;;;;25.75;7.00;;;;;;;;;;2065672;28;20038;-80
2024/01/03 01:36:53;;;;;;;14.93;6.22;;;;;;;;;;2070758;28;20030;-82
2024/01/03 01:38:13;;;;;;;14.88;6.68;;;;;;;;;;2064587;28;20023;-81
2024/01/03 01:39:34;;;;;;;23.40;7.75;;;;;;;;;;2069757;28;20026;-82
2024/01/03 01:40:55;;;;;;;18.58;7.80;;;;;;;;;;2070216;28;20397;-82
2024/01/03 01:42:16;;;;;;;16.23;7.20;;;;;;;;;;2067254;28;20030;-83
2024/01/03 01:43:37;;;;;;;18.25;8.10;;;;;;;;;;2065684;28;20034;-81
2024/01/03 01:44:58;;;;;;;18.17;7.68;;;;;;;;;;2056938;28;20035;-83
2024/01/03 01:46:19;;;;;;;19.23;7.03;;;;;;;;;;2056077;28;20434;-80
2024/01/03 01:47:42;;;;;;;20.70;6.97;;;;;;;;;;2065182;28;20034;-80
2024/01/03 01:49:03;;;;;;;20.35;7.25;;;;;;;;;;2058166;28;20038;-85
2024/01/03 01:50:24;;;;;;;24.67;7.68;;;;;;;;;;2062159;28;20030;-81
2024/01/03 01:51:45;;;;;;;23.10;7.00;;;;;;;;;;2058884;28;20039;-80
2024/01/03 01:53:06;;;;;;;20.40;7.63;;;;;;;;;;2058261;28;20023;-80
2024/01/03 01:54:28;;;;;;;18.85;7.63;;;;;;;;;;2064468;28;20023;-80
2024/01/03 01:55:49;;;;;;;22.30;8.23;;;;;;;;;;2068819;28;20062;-81
2024/01/03 01:57:10;;;;;;;17.65;7.40;;;;;;;;;;2071864;28;20041;-80
2024/01/03 01:58:31;;;;;;;16.70;6.53;;;;;;;;;;2067686;28;20035;-80
2024/01/03 01:59:52;;;;;;;15.23;7.43;;;;;;;;;;2065614;28;20030;-81
2024/01/03 02:01:13;;;;;;;22.58;8.00;;;;;;;;;;2060055;28;20418;-80
2024/01/03 02:02:35;;;;;;;20.05;7.90;;;;;;;;;;2057171;28;20035;-84
2024/01/03 02:03:56;;;;;;;16.95;6.22;;;;;;;;;;2065200;28;20046;-80
2024/01/03 02:05:18;;;;;;;18.48;6.30;;;;;;;;;;2063811;28;20038;-80
2024/01/03 02:06:39;;;;;;;17.50;7.15;;;;;;;;;;2069921;28;20061;-80
2024/01/03 02:07:59;;;;;;;23.10;7.47;;;;;;;;;;2065443;28;20413;-80
2024/01/03 02:09:21;;;;;;;22.55;7.10;;;;;;;;;;2070641;28;20029;-81
2024/01/03 02:10:42;;;;;;;28.70;8.65;;;;;;;;;;2063172;28;20490;-81
2024/01/03 02:12:03;;;;;;;18.67;7.03;;;;;;;;;;2072186;28;20029;-83
2024/01/03 02:13:24;;;;;;;21.17;7.18;;;;;;;;;;2061531;28;20037;-82
2024/01/03 02:14:44;;;;;;;17.85;7.18;;;;;;;;;;2058093;28;20031;-82
2024/01/03 02:16:05;;;;;;;21.10;7.30;;;;;;;;;;2065764;28;20038;-81
2024/01/03 02:17:27;;;;;;;16.50;6.25;;;;;;;;;;2061298;28;20042;-81
2024/01/03 02:18:48;;;;;;;16.27;6.50;;;;;;;;;;2066071;28;20038;-80
2024/01/03 02:20:12;;;;;;;19.65;6.95;;;;;;;;;;2065416;28;20047;-81
2024/01/03 02:21:32;;;;;;;23.00;6.47;;;;;;;;;;2072971;28;20029;-80
2024/01/03 02:22:53;;;;;;;21.80;7.85;;;;;;;;;;2065104;28;20431;-81
2024/01/03 02:24:14;;;;;;;21.23;7.25;;;;;;;;;;2067363;28;20042;-80
2024/01/03 02:25:35;;;;;;;19.50;7.00;;;;;;;;;;2064232;28;20039;-82
2024/01/03 02:26:56;;;;;;;18.13;7.13;;;;;;;;;;2070885;28;20034;-81
2024/01/03 02:28:17;;;;;;;15.82;6.25;;;;;;;;;;2064727;28;20383;-82
2024/01/03 02:29:38;;;;;;;22.83;6.95;;;;;;;;;;2066674;28;20037;-80
2024/01/03 02:30:59;;;;;;;18.70;6.70;;;;;;;;;;2057504;28;20034;-81
2024/01/03 02:32:20;;;;;;;18.95;6.50;;;;;;;;;;2058377;28;20513;-80
2024/01/03 02:33:41;;;;;;;22.15;7.00;;;;;;;;;;2056236;28;20210;-80
2024/01/03 02:35:02;;;;;;;20.58;6.53;;;;;;;;;;2067331;28;20022;-82
2024/01/03 02:36:23;;;;;;;16.48;7.07;;;;;;;;;;2070400;28;20030;-82
2024/01/03 02:37:44;;;;;;;16.52;7.57;;;;;;;;;;2066435;28;20037;-81
2024/01/03 02:39:05;;;;;;;22.60;7.45;;;;;;;;;;2060482;28;20042;-81
2024/01/03 02:40:26;;;;;;;21.33;7.78;;;;;;;;;;2061139;28;20104;-82
2024/01/03 02:41:46;;;;;;;31.67;7.85;;;;;;;;;;2065939;28;20030;-82
2024/01/03 02:43:07;;;;;;;23.55;7.40;;;;;;;;;;2058917;28;20043;-81
2024/01/03 02:44:28;;;;;;;14.82;6.72;;;;;;;;;;2058393;28;20039;-81
2024/01/03 02:45:49;;;;;;;19.38;7.03;;;;;;;;;;2065019;28;20034;-81
2024/01/03 02:47:10;;;;;;;21.05;7.22;;;;;;;;;;2060687;28;20414;-80
2024/01/03 02:48:31;;;;;;;24.63;8.13;;;;;;;;;;2061416;28;20026;-80
2024/01/03 02:49:57;;;;;;;20.88;6.78;;;;;;;;;;2065628;28;20030;-83
2024/01/03 02:51:19;;;;;;;13.60;6.82;;;;;;;;;;2058317;28;20047;-80
2024/01/03 02:52:40;;;;;;;20.98;6.68;;;;;;;;;;2059533;28;20027;-83
2024/01/03 02:54:01;;;;;;;23.60;6.90;;;;;;;;;;2062340;28;20031;-80
2024/01/03 02:55:22;;;;;;;18.52;7.57;;;;;;;;;;2069389;28;20022;-80
2024/01/03 02:56:42;;;;;;;17.08;6.38;;;;;;;;;;2065869;28;20031;-81
2024/01/03 02:58:03;;;;;;;20.02;6.88;;;;;;;;;;2064518;28;20035;-81
2024/01/03 02:59:25;;;;;;;16.60;7.15;;;;;;;;;;2065544;28;20069;-80
2024/01/03 03:00:46;;;;;;;16.70;6.55;;;;;;;;;;2062960;28;20470;-81
2024/01/03 03:02:07;;;;;;;21.80;7.63;;;;;;;;;;2066023;28;20057;-79
2024/01/03 03:03:28;;;;;;;24.83;8.27;;;;;;;;;;2065948;28;20044;-81
2024/01/03 03:04:49;;;;;;;23.30;8.40;;;;;;;;;;2065585;28;20026;-80
2024/01/03 03:06:10;;;;;;;20.30;7.82;;;;;;;;;;2069944;28;20077;-81
2024/01/03 03:07:31;;;;;;;18.27;7.35;;;;;;;;;;2069498;28;20034;-80
2024/01/03 03:08:52;;;;;;;27.80;8.32;;;;;;;;;;2059760;28;20034;-80
2024/01/03 03:10:14;;;;;;;23.42;7.32;;;;;;;;;;2069423;28;20030;-81
2024/01/03 03:11:35;;;;;;;;;;;;;;;;;;2065121;28;20466;-82
2024/01/03 03:12:55;;;;;;;23.20;7.97;;;;;;;;;;2066251;28;19929;-82
2024/01/03 03:14:16;;;;;;;22.60;7.72;;;;;;;;;;2070260;28;20037;-81
2024/01/03 03:15:37;;;;;;;25.52;8.55;;;;;;;;;;2064512;28;20086;-83
2024/01/03 03:16:58;;;;;;;19.15;7.60;;;;;;;;;;2071667;28;20026;-81
2024/01/03 03:18:19;;;;;;;25.45;9.40;;;;;;;;;;2064185;28;20038;-81
2024/01/03 03:19:40;;;;;;;22.15;7.30;;;;;;;;;;2064934;28;20510;-80
2024/01/03 03:21:01;;;;;;;20.48;8.13;;;;;;;;;;2063038;28;20042;-82
2024/01/03 03:22:22;;;;;;;21.70;8.15;;;;;;;;;;2065757;28;20038;-80
2024/01/03 03:23:43;;;;;;;24.42;7.15;;;;;;;;;;2058031;28;20031;-81
2024/01/03 03:25:04;;;;;;;23.23;8.50;;;;;;;;;;2062036;28;20379;-80
2024/01/03 03:26:25;;;;;;;23.98;7.03;;;;;;;;;;2061348;28;20039;-81
2024/01/03 03:27:45;;;;;;;29.45;8.38;;;;;;;;;;2056753;28;20042;-81
2024/01/03 03:29:06;;;;;;;25.77;7.85;;;;;;;;;;2058959;28;20486;-83
2024/01/03 03:30:27;;;;;;;25.48;9.00;;;;;;;;;;2068945;28;20046;-83
2024/01/03 03:31:48;;;;;;;23.83;8.00;;;;;;;;;;2066417;28;20034;-80
2024/01/03 03:33:09;;;;;;;23.65;8.52;;;;;;;;;;2056624;28;20034;-81
2024/01/03 03:34:30;;;;;;;16.83;7.15;;;;;;;;;;2058647;28;20023;-80
2024/01/03 03:35:51;;;;;;;20.08;7.60;;;;;;;;;;2055570;28;20434;-80
2024/01/03 03:37:12;;;;;;;23.10;7.35;;;;;;;;;;2063295;28;20038;-82
2024/01/03 03:38:35;;;;;;;25.23;8.32;;;;;;;;;;2058782;28;20038;-80
2024/01/03 03:39:56;;;;;;;23.23;8.73;;;;;;;;;;2057981;28;20035;-80
2024/01/03 03:41:19;;;;;;;23.05;8.02;;;;;;;;;;2058269;28;20045;-81
2024/01/03 03:42:44;;;;;;;17.20;7.72;;;;;;;;;;2058466;28;20099;-80
2024/01/03 03:44:05;;;;;;;27.20;8.57;;;;;;;;;;2063686;28;20054;-82
2024/01/03 03:45:26;;;;;;;20.85;6.57;;;;;;;;;;2065556;28;20450;-80
2024/01/03 03:46:47;;;;;;;19.90;7.95;;;;;;;;;;2065385;28;20034;-80
2024/01/03 03:48:07;;;;;;;23.00;7.57;;;;;;;;;;2070080;28;20030;-80
2024/01/03 03:49:28;;;;;;;19.95;7.15;;;;;;;;;;2068139;28;20030;-83
2024/01/03 03:50:49;;;;;;;20.65;7.05;;;;;;;;;;2063272;28;20042;-80
2024/01/03 03:52:10;;;;;;;27.70;8.13;;;;;;;;;;2062152;28;20157;-79
2024/01/03 03:53:31;;;;;;;23.40;7.93;;;;;;;;;;2063020;28;20031;-80
2024/01/03 03:54:52;;;;;;;18.98;7.15;;;;;;;;;;2062093;28;20398;-80
2024/01/03 03:56:23;;;;;;;23.15;7.60;;;;;;;;;;2057630;28;20019;-81
2024/01/03 03:57:44;;;;;;;21.50;7.13;;;;;;;;;;2065545;28;20031;-81
2024/01/03 03:59:07;;;;;;;22.90;7.78;;;;;;;;;;2065205;28;20038;-81
2024/01/03 04:00:27;;;;;;;26.75;8.60;;;;;;;;;;2064808;28;20517;-79
2024/01/03 04:01:49;;;;;;;26.63;8.45;;;;;;;;;;2065647;28;20445;-80
2024/01/03 04:03:10;;;;;;;27.35;8.48;;;;;;;;;;2065563;28;20027;-80
2024/01/03 04:04:31;;;;;;;22.42;7.88;;;;;;;;;;2066028;28;20031;-81
2024/01/03 04:05:52;;;;;;;24.65;7.63;;;;;;;;;;2062786;28;20150;-81
2024/01/03 04:07:13;;;;;;;21.65;7.70;;;;;;;;;;2059486;28;20038;-79
2024/01/03 04:08:33;;;;;;;23.33;7.80;;;;;;;;;;2061866;28;20406;-79
2024/01/03 04:09:54;;;;;;;29.15;8.57;;;;;;;;;;2056742;28;20035;-79
2024/01/03 04:11:15;;;;;;;32.17;8.13;;;;;;;;;;2056066;28;20046;-79
2024/01/03 04:12:38;;;;;;;31.38;8.15;;;;;;;;;;2057237;28;20035;-79
2024/01/03 04:13:59;;;;;;;23.80;8.48;;;;;;;;;;2057019;28;20530;-77
2024/01/03 04:15:19;;;;;;;27.55;8.15;;;;;;;;;;2061704;28;20053;-76
2024/01/03 04:16:40;;;;;;;33.28;10.30;;;;;;;;;;2059630;28;20046;-77
2024/01/03 04:18:04;;;;;;;26.75;8.20;;;;;;;;;;2057045;28;20066;-78
2024/01/03 04:19:25;;;;;;;18.40;7.72;;;;;;;;;;2071222;28;20509;-78
2024/01/03 04:20:46;;;;;;;19.73;7.55;;;;;;;;;;2071617;28;20149;-78
2024/01/03 04:22:07;;;;;;;19.27;8.05;;;;;;;;;;2071350;28;20428;-77
2024/01/03 04:23:28;;;;;;;20.98;8.23;;;;;;;;;;2064484;28;20443;-77
2024/01/03 04:24:49;;;;;;;19.95;8.43;;;;;;;;;;2064786;28;20039;-77
2024/01/03 04:26:10;;;;;;;31.92;9.40;;;;;;;;;;2063370;28;20046;-78
2024/01/03 04:27:30;;;;;;;28.42;9.13;;;;;;;;;;2060738;28;20027;-78
2024/01/03 04:28:51;;;;;;;24.23;8.18;;;;;;;;;;2065458;28;20026;-78
2024/01/03 04:30:12;;;;;;;21.88;8.80;;;;;;;;;;2061813;28;20406;-78
2024/01/03 04:31:33;;;;;;;24.55;7.93;;;;;;;;;;2063477;28;20034;-78
2024/01/03 04:32:54;;;;;;;29.80;7.85;;;;;;;;;;2063662;28;20026;-79
2024/01/03 04:34:15;;;;;;;28.02;8.52;;;;;;;;;;2072078;28;20026;-80
2024/01/03 04:35:36;;;;;;;25.02;7.70;;;;;;;;;;2068164;28;20081;-79
2024/01/03 04:36:56;;;;;;;15.98;8.23;;;;;;;;;;2064074;28;20019;-81
2024/01/03 04:38:17;;;;;;;17.35;7.47;;;;;;;;;;2065089;28;20398;-80
2024/01/03 04:39:38;;;;;;;22.02;7.25;;;;;;;;;;2069347;28;20057;-81
2024/01/03 04:40:59;;;;;;;22.52;8.18;;;;;;;;;;2067621;28;20038;-81
2024/01/03 04:42:20;;;;;;;24.10;8.32;;;;;;;;;;2063818;28;20518;-80
2024/01/03 04:43:41;;;;;;;30.67;7.90;;;;;;;;;;2065026;28;20034;-81
2024/01/03 04:45:02;;;;;;;24.00;7.95;;;;;;;;;;2070685;28;20026;-80
2024/01/03 04:46:23;;;;;;;17.92;8.32;;;;;;;;;;2067152;28;20509;-80
2024/01/03 04:47:44;;;;;;;20.88;8.48;;;;;;;;;;2064728;28;20045;-80
2024/01/03 04:49:05;;;;;;;14.98;6.70;;;;;;;;;;2064039;28;20034;-81
2024/01/03 04:50:25;;;;;;;26.80;8.02;;;;;;;;;;2066296;28;20026;-81
2024/01/03 04:51:46;;;;;;;13.20;6.85;;;;;;;;;;2062454;28;20026;-81
2024/01/03 04:53:07;;;;;;;23.55;8.13;;;;;;;;;;2064941;28;20038;-81
2024/01/03 04:54:29;;;;;;;18.92;7.35;;;;;;;;;;2064921;28;20038;-84
2024/01/03 04:55:49;;;;;;;17.33;6.63;;;;;;;;;;2072052;28;20032;-81
2024/01/03 04:57:10;;;;;;;13.90;7.05;;;;;;;;;;2064256;28;20408;-84
2024/01/03 04:58:31;;;;;;;13.45;6.30;;;;;;;;;;2064308;28;20168;-80
2024/01/03 04:59:52;;;;;;;20.98;7.82;;;;;;;;;;2065501;28;20038;-81
2024/01/03 05:01:13;;;;;;;15.25;7.20;;;;;;;;;;2063268;28;20043;-81
2024/01/03 05:02:35;;;;;;;18.70;6.93;;;;;;;;;;2059208;28;20077;-80
2024/01/03 05:03:56;;;;;;;15.23;6.65;;;;;;;;;;2056853;28;20035;-80
2024/01/03 05:05:17;;;;;;;11.18;6.80;;;;;;;;;;2057283;28;20023;-81
2024/01/03 05:06:38;;;;;;;12.73;6.43;;;;;;;;;;2063857;28;20514;-80
2024/01/03 05:07:59;;;;;;;14.35;6.72;;;;;;;;;;2062907;28;20534;-84
2024/01/03 05:09:20;;;;;;;16.10;7.35;;;;;;;;;;2062279;28;20030;-80
2024/01/03 05:10:41;;;;;;;15.65;7.05;;;;;;;;;;2069785;28;20482;-80
2024/01/03 05:12:02;;;;;;;19.90;6.78;;;;;;;;;;2073260;28;20034;-81
2024/01/03 05:13:23;;;;;;;16.40;6.82;;;;;;;;;;2065339;28;20038;-80
2024/01/03 05:14:44;;;;;;;15.82;6.70;;;;;;;;;;2070306;28;20081;-82
2024/01/03 05:16:06;;;;;;;13.52;6.60;;;;;;;;;;2063014;28;20038;-81
2024/01/03 05:17:27;;;;;;;;;;;;;;;;;;2072360;28;20026;-82
2024/01/03 05:18:48;;;;;;;17.02;7.00;;;;;;;;;;2074124;28;20366;-81
2024/01/03 05:20:09;;;;;;;17.15;7.53;;;;;;;;;;2072698;28;20432;-83
2024/01/03 05:21:30;;;;;;;10.32;6.93;;;;;;;;;;2071367;28;20485;-82
2024/01/03 05:22:51;;;;;;;18.92;7.93;;;;;;;;;;2065811;28;20413;-81
2024/01/03 05:24:12;;;;;;;15.48;7.60;;;;;;;;;;2070366;28;20357;-81
2024/01/03 05:25:33;;;;;;;12.93;7.40;;;;;;;;;;2072917;28;20022;-80
2024/01/03 05:26:54;;;;;;;11.27;6.10;;;;;;;;;;2065739;28;20513;-79
2024/01/03 05:28:15;;;;;;;13.23;7.78;;;;;;;;;;2070652;28;20038;-80
2024/01/03 05:29:36;;;;;;;10.18;6.53;;;;;;;;;;2071914;28;20030;-83
2024/01/03 05:30:57;;;;;;;10.77;6.35;;;;;;;;;;2053326;28;20027;-80
2024/01/03 05:32:18;;;;;;;15.90;7.15;;;;;;;;;;2061621;28;20030;-81
2024/01/03 05:33:38;;;;;;;11.27;6.22;;;;;;;;;;2057039;28;20038;-81
2024/01/03 05:34:59;;;;;;;7.68;5.47;;;;;;;;;;2054308;28;20034;-80
2024/01/03 05:36:20;;;;;;;15.18;7.15;;;;;;;;;;2061930;28;20049;-81
2024/01/03 05:37:41;;;;;;;13.45;6.38;;;;;;;;;;2064887;28;20029;-81
2024/01/03 05:39:02;;;;;;;10.05;5.55;;;;;;;;;;2064612;28;20034;-81
2024/01/03 05:40:23;;;;;;;18.75;6.25;;;;;;;;;;2064994;28;20404;-81
2024/01/03 05:41:44;;;;;;;9.05;5.82;;;;;;;;;;2064024;28;20035;-80
2024/01/03 05:43:05;;;;;;;13.55;6.60;;;;;;;;;;2061354;28;20034;-80
2024/01/03 05:44:26;;;;;;;17.15;6.28;;;;;;;;;;2064142;28;20062;-81
2024/01/03 05:45:47;;;;;;;9.73;6.30;;;;;;;;;;2069746;28;20056;-80
2024/01/03 05:47:07;;;;;;;12.98;6.63;;;;;;;;;;2068792;28;20031;-80
2024/01/03 05:48:28;;;;;;;10.63;5.68;;;;;;;;;;2072561;28;20041;-81
2024/01/03 05:49:50;;;;;;;13.15;5.70;;;;;;;;;;2066970;28;20443;-81
2024/01/03 05:51:11;;;;;;;13.77;6.82;;;;;;;;;;2070481;28;20173;-80
2024/01/03 05:52:32;;;;;;;12.63;6.95;;;;;;;;;;2065134;28;20018;-80
2024/01/03 05:53:53;;;;;;;9.93;6.43;;;;;;;;;;2065616;28;20490;-80
2024/01/03 05:55:14;;;;;;;9.48;6.40;;;;;;;;;;2064139;28;20053;-80
2024/01/03 05:56:35;;;;;;;9.98;6.53;;;;;;;;;;2070042;28;20033;-82
2024/01/03 05:57:55;;;;;;;13.40;6.55;;;;;;;;;;2074017;28;20030;-84
2024/01/03 05:59:16;;;;;;;11.18;6.57;;;;;;;;;;2067126;28;20023;-82
2024/01/03 06:00:37;;;;;;;10.15;6.00;;;;;;;;;;2071489;28;20042;-81
2024/01/03 06:01:58;;;;;;;8.27;6.15;;;;;;;;;;2066306;28;20034;-80
2024/01/03 06:03:20;;;;;;;11.50;6.68;;;;;;;;;;2072008;28;20030;-81
2024/01/03 06:04:41;;;;;;;12.57;6.15;;;;;;;;;;2058676;28;20054;-80
2024/01/03 06:06:01;;;;;;;10.25;6.07;;;;;;;;;;2068444;28;20022;-81
2024/01/03 06:07:22;;;;;;;14.00;6.32;;;;;;;;;;2074569;28;20038;-80
2024/01/03 06:08:43;;;;;;;7.90;6.10;;;;;;;;;;2072818;28;20135;-81
2024/01/03 06:10:05;;;;;;;11.32;6.50;;;;;;;;;;2074849;28;20025;-80
2024/01/03 06:11:26;;;;;;;13.27;6.35;;;;;;;;;;2075035;28;20030;-81
2024/01/03 06:12:47;;;;;;;9.02;6.07;;;;;;;;;;2074590;28;20056;-81
2024/01/03 06:14:08;;;;;;;9.15;6.75;;;;;;;;;;2065674;28;20105;-80
2024/01/03 06:15:28;;;;;;;11.23;6.82;;;;;;;;;;2072188;28;20076;-81
2024/01/03 06:16:49;;;;;;;7.35;6.38;;;;;;;;;;2074418;28;20034;-81
2024/01/03 06:18:10;;;;;;;9.57;5.88;;;;;;;;;;2064712;28;20355;-82
2024/01/03 06:19:31;;;;;;;11.32;6.50;;;;;;;;;;2067785;28;20425;-80
2024/01/03 06:20:52;;;;;;;14.00;6.88;;;;;;;;;;2071792;28;20401;-80
2024/01/03 06:22:13;;;;;;;10.35;6.35;;;;;;;;;;2067841;28;20035;-80
2024/01/03 06:23:37;;;;;;;16.38;7.18;;;;;;;;;;2073269;28;20030;-81
2024/01/03 06:24:57;;;;;;;10.00;5.95;;;;;;;;;;2074746;28;20029;-80
2024/01/03 06:26:18;;;;;;;14.95;6.68;;;;;;;;;;2065911;28;20395;-80
2024/01/03 06:27:39;;;;;;;11.88;5.88;;;;;;;;;;2073074;28;20048;-84
2024/01/03 06:29:00;;;;;;;9.50;6.40;;;;;;;;;;2066519;28;20037;-80
2024/01/03 06:30:21;;;;;;;13.43;6.50;;;;;;;;;;2071191;28;20029;-79
2024/01/03 06:31:42;;;;;;;10.98;6.95;;;;;;;;;;2074328;28;20407;-79
2024/01/03 06:33:03;;;;;;;11.07;5.53;;;;;;;;;;2075183;28;20089;-79
2024/01/03 06:34:24;;;;;;;14.88;6.60;;;;;;;;;;2065192;28;20445;-79
2024/01/03 06:35:44;;;;;;;10.85;6.80;;;;;;;;;;2063588;28;20090;-79
2024/01/03 06:37:05;;;;;;;14.38;7.05;;;;;;;;;;2062860;28;20033;-79
2024/01/03 06:38:26;;;;;;;14.48;6.70;;;;;;;;;;2071051;28;20596;-79
2024/01/03 06:39:47;;;;;;;15.57;7.20;;;;;;;;;;2064382;28;20125;-76
2024/01/03 06:41:09;;;;;;;15.95;7.75;;;;;;;;;;2070189;28;20036;-77
2024/01/03 06:42:30;;;;;;;10.05;6.32;;;;;;;;;;2066460;28;20046;-76
2024/01/03 06:43:51;;;;;;;12.30;5.93;;;;;;;;;;2059028;28;20042;-77
2024/01/03 06:45:12;;;;;;;14.60;6.90;;;;;;;;;;2071987;28;20037;-77
2024/01/03 06:46:32;;;;;;;15.55;6.43;;;;;;;;;;2072719;28;20034;-77
2024/01/03 06:47:53;;;;;;;8.05;6.53;;;;;;;;;;2065801;28;20474;-77
2024/01/03 06:49:14;;;;;;;12.45;6.20;;;;;;;;;;2065429;28;20035;-77
2024/01/03 06:50:35;;;;;;;10.10;6.53;;;;;;;;;;2071016;28;20026;-77
2024/01/03 06:51:56;;;;;;;13.63;6.63;;;;;;;;;;2064638;28;20568;-77
2024/01/03 06:53:18;;;;;;;11.27;6.10;;;;;;;;;;2070900;28;20030;-77
2024/01/03 06:54:39;;;;;;;10.93;6.13;;;;;;;;;;2067536;28;20347;-77
2024/01/03 06:56:00;;;;;;;12.18;5.82;;;;;;;;;;2073611;28;20038;-76
2024/01/03 06:57:20;;;;;;;9.18;6.35;;;;;;;;;;2065084;28;20027;-77
2024/01/03 06:58:41;;;;;;;11.43;6.65;;;;;;;;;;2071927;28;20026;-77
2024/01/03 07:00:02;;;;;;;10.43;6.00;;;;;;;;;;2073058;28;20421;-76
2024/01/03 07:01:23;;;;;;;7.43;5.82;;;;;;;;;;2064596;28;20038;-77
2024/01/03 07:02:44;;;;;;;9.90;6.63;;;;;;;;;;2070666;28;20038;-77
2024/01/03 07:04:05;;;;;;;8.63;6.22;;;;;;;;;;2073295;28;20026;-77
2024/01/03 07:05:26;;;;;;;11.00;5.78;;;;;;;;;;2074371;28;20104;-76
2024/01/03 07:06:47;;;;;;;9.10;6.28;;;;;;;;;;2065839;28;20046;-77
2024/01/03 07:08:08;;;;;;;7.30;6.50;;;;;;;;;;2070397;28;20026;-76
2024/01/03 07:09:29;;;;;;;9.05;6.35;;;;;;;;;;2065739;28;20037;-77
2024/01/03 07:10:50;;;;;;;6.40;5.68;;;;;;;;;;2062055;28;20564;-77
2024/01/03 07:12:11;;;;;;;6.65;6.03;;;;;;;;;;2071539;28;20033;-77
2024/01/03 07:13:32;;;;;;;9.70;6.25;;;;;;;;;;2073670;28;20093;-77
2024/01/03 07:14:53;;;;;;;8.75;6.70;;;;;;;;;;2078334;28;20021;-77
2024/01/03 07:16:15;;;;;;;7.80;6.03;;;;;;;;;;2073604;28;20102;-77
2024/01/03 07:17:36;;;;;;;8.32;5.63;;;;;;;;;;2066470;28;20103;-77
2024/01/03 07:18:57;;;;;;;6.18;5.57;;;;;;;;;;2059760;28;20031;-77
2024/01/03 07:20:18;;;;;;;6.72;6.13;;;;;;;;;;2063079;28;20038;-77
2024/01/03 07:21:39;;;;;;;6.80;5.78;;;;;;;;;;2071588;28;20522;-77
2024/01/03 07:23:00;;;;;;;8.25;6.32;;;;;;;;;;2072419;28;20088;-78
2024/01/03 07:24:21;;;;;;;9.45;5.97;;;;;;;;;;2066517;28;20042;-77
2024/01/03 07:25:42;;;;;;;7.65;5.95;;;;;;;;;;2070667;28;20037;-77
2024/01/03 07:27:03;;;;;;;8.65;5.32;;;;;;;;;;2065061;28;20104;-77
2024/01/03 07:28:24;;;;;;;6.28;5.40;;;;;;;;;;2070791;28;20034;-77
2024/01/03 07:29:45;;;;;;;6.20;5.60;;;;;;;;;;2066086;28;20522;-77
2024/01/03 07:31:07;;;;;;;6.95;5.68;;;;;;;;;;2054455;28;20031;-77
2024/01/03 07:32:28;;;;;;;6.22;5.63;;;;;;;;;;2062070;28;20026;-78
2024/01/03 07:33:48;;;;;;;7.28;5.80;;;;;;;;;;2058263;28;20035;-78
2024/01/03 07:35:09;;;;;;;6.65;6.15;;;;;;;;;;2063212;28;20026;-78
2024/01/03 07:36:30;;;;;;;6.75;5.78;;;;;;;;;;2057798;28;20027;-78
2024/01/03 07:37:51;;;;;;;5.50;5.00;;;;;;;;;;2070634;28;20026;-79
2024/01/03 07:39:12;;;;;;;7.28;5.88;;;;;;;;;;2067877;28;20405;-78
2024/01/03 07:40:33;;;;;;;7.43;6.07;;;;;;;;;;2071135;28;20041;-78
2024/01/03 07:41:54;;;;;;;6.60;5.97;;;;;;;;;;2073088;28;20065;-79
2024/01/03 07:43:15;;;;;;;7.00;6.30;;;;;;;;;;2079073;28;20041;-79
2024/01/03 07:44:41;;;;;;;7.10;6.38;;;;;;;;;;2073755;28;20084;-78
2024/01/03 07:46:02;;;;;;;7.05;5.78;;;;;;;;;;2074050;28;20038;-78
2024/01/03 07:47:23;;;;;;;7.72;6.07;;;;;;;;;;2073509;28;20105;-79
2024/01/03 07:48:44;;;;;;;6.70;6.10;;;;;;;;;;2071287;28;20033;-78
2024/01/03 07:50:05;;;;;;;6.88;5.80;;;;;;;;;;2070686;28;20030;-78
2024/01/03 07:51:26;;;;;;;9.48;6.32;;;;;;;;;;2071473;28;20046;-79
2024/01/03 07:52:46;;;;;;;7.93;6.40;;;;;;;;;;2067778;28;20097;-78
2024/01/03 07:54:07;;;;;;;8.05;6.50;;;;;;;;;;2060591;28;20578;-79
2024/01/03 07:55:28;;;;;;;7.20;6.50;;;;;;;;;;2063335;28;20030;-79
2024/01/03 07:56:49;;;;;;;6.97;6.35;;;;;;;;;;2069787;28;20018;-79
2024/01/03 07:58:10;;;;;;;9.60;6.93;;;;;;;;;;2074084;28;20528;-79
2024/01/03 07:59:31;;;;;;;7.00;6.28;;;;;;;;;;2065521;28;20041;-78
2024/01/03 08:00:52;;;;;;;6.90;6.30;;;;;;;;;;2070204;28;20030;-79
2024/01/03 08:02:13;;;;;;;7.35;6.45;;;;;;;;;;2065071;28;20045;-79
2024/01/03 08:03:34;;;;;;;7.07;6.18;;;;;;;;;;2070043;28;20412;-79